Time;durP1;ratioP1;P1;durP2;ratioP2;P2;SDS_P1;SDS_P2;PMS_P1;PMS_P2;Temp;Humidity;BMP_temperature;BMP_pressure;BME280_temperature;BME280_humidity;BME280_pressure;Samples;Min_cycle;Max_cycle;Signal;HPM_P1;HPM_P2
2023/04/05 00:00:33;;;;;;;7.45;4.38;;;2.40;99.90;;;;;;5098255;27;20143;-64
2023/04/05 00:02:59;;;;;;;6.40;3.90;;;2.40;99.90;;;;;;5109301;27;20034;-63
2023/04/05 00:05:29;;;;;;;6.13;4.20;;;2.30;99.90;;;;;;5111024;27;20116;-65
2023/04/05 00:08:00;;;;;;;7.10;4.05;;;2.30;99.90;;;;;;5130909;27;20042;-66
2023/04/05 00:10:30;;;;;;;8.18;4.18;;;2.30;99.90;;;;;;5108417;27;20478;-66
2023/04/05 00:12:59;;;;;;;6.32;3.85;;;2.20;99.90;;;;;;5108726;27;20035;-67
2023/04/05 00:15:26;;;;;;;7.75;4.47;;;2.20;99.90;;;;;;5110379;27;20039;-64
2023/04/05 00:17:53;;;;;;;9.30;4.75;;;2.10;99.90;;;;;;5111783;27;20515;-65
2023/04/05 00:20:19;;;;;;;7.53;4.60;;;2.10;99.90;;;;;;5111146;27;20051;-66
2023/04/05 00:22:45;;;;;;;9.95;4.20;;;2.10;99.90;;;;;;5138354;27;20625;-67
2023/04/05 00:25:12;;;;;;;5.55;4.10;;;2.00;99.90;;;;;;5108511;27;20039;-65
2023/04/05 00:27:38;;;;;;;6.63;3.88;;;2.00;99.90;;;;;;5146091;27;20027;-69
2023/04/05 00:30:04;;;;;;;6.47;4.40;;;2.00;99.90;;;;;;5114687;27;20050;-67
2023/04/05 00:32:30;;;;;;;9.23;4.38;;;2.00;99.90;;;;;;5098199;27;20086;-64
2023/04/05 00:34:56;;;;;;;7.90;4.85;;;1.90;99.90;;;;;;5114120;27;20085;-63
2023/04/05 00:37:21;;;;;;;9.30;4.18;;;1.90;99.90;;;;;;5105931;27;20099;-65
2023/04/05 00:39:47;;;;;;;5.95;3.88;;;1.80;99.90;;;;;;5114310;27;20430;-69
2023/04/05 00:42:13;;;;;;;7.43;4.40;;;1.80;99.90;;;;;;5113725;27;20091;-64
2023/04/05 00:44:39;;;;;;;7.55;4.25;;;1.80;99.90;;;;;;5138362;27;20397;-66
2023/04/05 00:47:06;;;;;;;8.73;4.40;;;1.80;99.90;;;;;;5111065;27;20050;-64
2023/04/05 00:49:33;;;;;;;9.43;4.97;;;1.80;99.90;;;;;;5113841;27;20039;-65
2023/04/05 00:52:00;;;;;;;7.70;4.57;;;1.80;99.90;;;;;;5108949;27;20043;-65
2023/04/05 00:54:29;;;;;;;8.85;5.13;;;1.70;99.90;;;;;;5113118;27;20039;-64
2023/04/05 00:56:59;;;;;;;9.73;4.45;;;1.70;99.90;;;;;;5137254;27;20048;-68
2023/04/05 00:59:27;;;;;;;8.75;4.97;;;1.70;99.90;;;;;;5113046;27;20490;-63
2023/04/05 01:02:32;;;;;;;7.43;4.75;;;1.60;99.90;;;;;;5111452;27;20035;-62
2023/04/05 01:05:28;;;;;;;9.32;5.43;;;1.70;99.90;;;;;;5111572;27;20047;-66
2023/04/05 01:08:06;;;;;;;7.68;4.38;;;1.60;99.90;;;;;;5113579;27;20386;-66
2023/04/05 01:10:38;;;;;;;7.57;4.05;;;1.60;99.90;;;;;;5097453;27;20051;-66
2023/04/05 01:13:04;;;;;;;6.97;4.50;;;1.60;99.90;;;;;;5111328;27;20046;-68
2023/04/05 01:15:31;;;;;;;7.03;4.70;;;1.60;99.90;;;;;;5137684;27;20063;-62
2023/04/05 01:18:00;;;;;;;6.72;4.43;;;1.50;99.90;;;;;;5094260;27;20046;-65
2023/04/05 01:20:31;;;;;;;7.45;4.63;;;1.50;99.90;;;;;;5111243;27;20100;-66
2023/04/05 01:23:02;;;;;;;8.90;4.80;;;1.50;99.90;;;;;;5126893;27;20051;-65
2023/04/05 01:25:46;;;;;;;8.68;3.90;;;1.40;99.90;;;;;;5111224;27;20424;-63
2023/04/05 01:28:36;;;;;;;6.50;4.47;;;1.40;99.90;;;;;;5115640;27;20052;-65
2023/04/05 01:31:32;;;;;;;8.32;4.68;;;1.30;99.90;;;;;;5106987;27;20047;-65
2023/04/05 01:34:11;;;;;;;6.60;4.28;;;1.30;99.90;;;;;;5107578;27;20405;-64
2023/04/05 01:36:40;;;;;;;8.18;4.32;;;1.20;99.90;;;;;;5110888;27;20112;-65
2023/04/05 01:39:10;;;;;;;8.63;4.28;;;1.20;99.90;;;;;;5106305;27;20047;-67
2023/04/05 01:41:38;;;;;;;8.02;4.45;;;1.20;99.90;;;;;;5108363;27;20525;-67
2023/04/05 01:44:04;;;;;;;6.45;4.05;;;1.10;99.90;;;;;;5138713;27;20421;-65
2023/04/05 01:46:30;;;;;;;8.55;4.65;;;1.10;99.90;;;;;;5112040;27;20051;-67
2023/04/05 01:48:55;;;;;;;6.20;3.85;;;1.00;99.90;;;;;;5104730;27;20429;-63
2023/04/05 01:51:21;;;;;;;5.97;4.00;;;1.00;99.90;;;;;;5106846;27;20895;-66
2023/04/05 01:53:47;;;;;;;7.55;4.53;;;1.00;99.90;;;;;;5104571;27;20413;-65
2023/04/05 01:56:12;;;;;;;6.90;4.43;;;0.90;99.90;;;;;;5106662;27;20553;-67
2023/04/05 01:58:38;;;;;;;8.13;4.50;;;0.90;99.90;;;;;;5094867;27;20054;-66
2023/04/05 02:01:04;;;;;;;9.48;4.65;;;0.90;99.90;;;;;;5106198;27;20855;-67
2023/04/05 02:03:30;;;;;;;7.63;4.80;;;0.90;99.90;;;;;;5107529;27;20077;-64
2023/04/05 02:05:57;;;;;;;10.45;4.63;;;0.90;99.90;;;;;;5108854;27;20130;-64
2023/04/05 02:08:22;;;;;;;7.63;4.50;;;0.90;99.90;;;;;;5121113;27;20045;-66
2023/04/05 02:10:48;;;;;;;8.02;4.60;;;0.90;99.90;;;;;;5142880;27;20668;-66
2023/04/05 02:13:14;;;;;;;8.73;4.80;;;0.90;99.90;;;;;;5129938;27;20031;-66
2023/04/05 02:15:39;;;;;;;5.93;4.15;;;0.80;99.90;;;;;;5106452;27;20039;-65
2023/04/05 02:18:06;;;;;;;5.97;4.20;;;0.80;99.90;;;;;;5127672;27;20077;-65
2023/04/05 02:20:33;;;;;;;8.32;5.07;;;0.80;99.90;;;;;;5107957;27;20106;-64
2023/04/05 02:22:59;;;;;;;8.27;4.93;;;0.70;99.90;;;;;;5092304;27;20043;-67
2023/04/05 02:25:25;;;;;;;7.57;4.53;;;0.70;99.90;;;;;;5131741;27;20039;-67
2023/04/05 02:27:51;;;;;;;9.60;4.60;;;0.70;99.90;;;;;;5107671;28;20043;-67
2023/04/05 02:30:16;;;;;;;7.95;4.68;;;0.70;99.90;;;;;;5123243;27;20118;-68
2023/04/05 02:32:43;;;;;;;6.93;4.05;;;0.70;99.90;;;;;;5126471;27;20043;-66
2023/04/05 02:35:09;;;;;;;7.57;4.95;;;0.60;99.90;;;;;;5103491;28;20039;-64
2023/04/05 02:37:35;;;;;;;9.05;5.43;;;0.60;99.90;;;;;;5134008;27;20047;-65
2023/04/05 02:40:04;;;;;;;9.77;5.32;;;0.60;99.90;;;;;;5109600;27;20035;-68
2023/04/05 02:42:29;;;;;;;7.80;4.65;;;0.60;99.90;;;;;;5104976;27;21818;-65
2023/04/05 02:44:55;;;;;;;6.20;4.65;;;0.50;99.90;;;;;;5104704;28;20042;-66
2023/04/05 02:47:21;;;;;;;7.63;4.78;;;0.50;99.90;;;;;;5141914;27;20043;-68
2023/04/05 02:49:50;;;;;;;11.05;5.00;;;0.50;99.90;;;;;;5108309;28;20043;-65
2023/04/05 02:52:16;;;;;;;7.60;4.72;;;0.40;99.90;;;;;;5102797;27;20434;-65
2023/04/05 02:54:42;;;;;;;9.02;5.03;;;0.40;99.90;;;;;;5114086;27;20093;-65
2023/04/05 02:57:10;;;;;;;7.82;4.45;;;0.40;99.90;;;;;;5109526;27;21525;-67
2023/04/05 02:59:37;;;;;;;6.60;5.00;;;0.40;99.90;;;;;;5111166;27;20149;-64
2023/04/05 03:02:04;;;;;;;8.85;5.13;;;0.40;99.90;;;;;;5094220;27;20031;-66
2023/04/05 03:04:33;;;;;;;7.70;4.60;;;0.40;99.90;;;;;;5140304;27;20031;-66
2023/04/05 03:07:01;;;;;;;7.63;5.07;;;0.30;99.90;;;;;;5111448;27;20066;-67
2023/04/05 03:09:32;;;;;;;9.55;5.82;;;0.40;99.90;;;;;;5114574;27;20039;-66
2023/04/05 03:12:05;;;;;;;9.60;5.35;;;0.30;99.90;;;;;;5114608;27;20043;-67
2023/04/05 03:14:31;;;;;;;8.52;4.85;;;0.40;99.90;;;;;;5133538;27;20505;-65
2023/04/05 03:16:57;;;;;;;7.28;4.85;;;0.40;99.90;;;;;;5110503;27;20040;-63
2023/04/05 03:19:25;;;;;;;10.30;5.32;;;0.40;99.90;;;;;;5127113;27;20035;-63
2023/04/05 03:21:51;;;;;;;9.50;5.32;;;0.30;99.90;;;;;;5112016;27;20043;-65
2023/04/05 03:24:17;;;;;;;8.45;5.28;;;0.40;99.90;;;;;;5144830;27;20047;-69
2023/04/05 03:26:44;;;;;;;9.98;5.40;;;0.30;99.90;;;;;;5149551;27;20158;-65
2023/04/05 03:29:10;;;;;;;9.48;4.97;;;0.30;99.90;;;;;;5116296;27;20114;-64
2023/04/05 03:31:36;;;;;;;8.18;5.05;;;0.30;99.90;;;;;;5128629;27;20512;-66
2023/04/05 03:34:02;;;;;;;10.43;5.57;;;0.30;99.90;;;;;;5116339;27;20039;-69
2023/04/05 03:36:29;;;;;;;9.50;5.25;;;0.30;99.90;;;;;;5113459;27;20481;-65
2023/04/05 03:38:55;;;;;;;10.63;6.10;;;0.30;99.90;;;;;;5113670;27;20075;-65
2023/04/05 03:41:21;;;;;;;10.40;5.78;;;0.30;99.90;;;;;;5132500;27;20104;-65
2023/04/05 03:43:48;;;;;;;10.10;6.00;;;0.30;99.90;;;;;;5111254;27;20035;-67
2023/04/05 03:46:14;;;;;;;8.63;5.72;;;0.30;99.90;;;;;;5109327;27;20058;-67
2023/04/05 03:48:39;;;;;;;9.10;5.20;;;0.30;99.90;;;;;;5114063;27;20047;-65
2023/04/05 03:51:06;;;;;;;9.70;6.03;;;0.30;99.90;;;;;;5107102;27;20439;-63
2023/04/05 03:53:32;;;;;;;8.95;5.93;;;0.30;99.90;;;;;;5142668;27;20046;-65
2023/04/05 03:55:58;;;;;;;10.88;6.07;;;0.30;99.90;;;;;;5113067;27;20050;-64
2023/04/05 03:58:26;;;;;;;10.98;6.32;;;0.30;99.90;;;;;;5108921;27;20051;-63
2023/04/05 04:00:54;;;;;;;9.98;6.20;;;0.30;99.90;;;;;;5110262;27;20066;-65
2023/04/05 04:03:20;;;;;;;10.80;6.18;;;0.30;99.90;;;;;;5108189;27;20058;-67
2023/04/05 04:05:46;;;;;;;12.57;6.07;;;0.30;99.90;;;;;;5109584;27;20073;-64
2023/04/05 04:08:12;;;;;;;10.05;6.40;;;0.30;99.90;;;;;;5114210;27;20039;-64
2023/04/05 04:10:38;;;;;;;11.98;6.38;;;0.30;99.90;;;;;;5109707;27;20102;-66
2023/04/05 04:13:03;;;;;;;10.27;6.57;;;0.30;99.90;;;;;;5127017;27;20130;-65
2023/04/05 04:15:30;;;;;;;8.80;5.70;;;0.30;99.90;;;;;;5105997;27;20047;-66
2023/04/05 04:17:55;;;;;;;9.35;5.80;;;0.20;99.90;;;;;;5092629;27;20104;-67
2023/04/05 04:20:21;;;;;;;9.10;5.65;;;0.20;99.90;;;;;;5105838;27;20043;-65
2023/04/05 04:22:48;;;;;;;10.15;5.80;;;0.20;99.90;;;;;;5111688;27;20047;-67
2023/04/05 04:25:16;;;;;;;10.15;6.38;;;0.20;99.90;;;;;;5113305;27;20144;-65
2023/04/05 04:27:43;;;;;;;11.07;6.50;;;0.20;99.90;;;;;;5106562;27;20070;-69
2023/04/05 04:30:10;;;;;;;10.32;6.15;;;0.20;99.90;;;;;;5100108;27;20120;-67
2023/04/05 04:32:53;;;;;;;10.65;6.63;;;0.10;99.90;;;;;;5135707;27;20523;-68
2023/04/05 04:35:23;;;;;;;11.45;6.20;;;0.10;99.90;;;;;;5141854;27;20050;-66
2023/04/05 04:38:06;;;;;;;10.52;5.53;;;0.10;99.90;;;;;;5108694;27;20046;-66
2023/04/05 04:40:40;;;;;;;9.60;5.93;;;0.10;99.90;;;;;;5119925;27;20497;-65
2023/04/05 04:43:13;;;;;;;10.57;6.35;;;0.10;99.90;;;;;;5107067;27;20043;-67
2023/04/05 04:45:58;;;;;;;10.98;6.40;;;0.00;99.90;;;;;;5113257;27;20039;-64
2023/04/05 04:48:23;;;;;;;9.20;6.18;;;0.00;99.90;;;;;;5114423;27;20081;-64
2023/04/05 04:50:49;;;;;;;9.73;6.28;;;0.00;99.90;;;;;;5129513;27;20058;-66
2023/04/05 04:53:17;;;;;;;10.27;7.00;;;0.00;99.90;;;;;;5113850;27;20055;-67
2023/04/05 04:55:43;;;;;;;11.15;6.55;;;0.10;99.90;;;;;;5118530;27;20409;-66
2023/04/05 04:58:11;;;;;;;7.95;6.00;;;0.00;99.90;;;;;;5092508;27;20057;-66
2023/04/05 05:00:43;;;;;;;11.57;6.40;;;0.00;99.90;;;;;;5109792;27;20121;-67
2023/04/05 05:03:10;;;;;;;9.48;6.10;;;0.00;99.90;;;;;;5111790;27;20080;-66
2023/04/05 05:05:41;;;;;;;11.13;7.25;;;0.00;99.90;;;;;;5121687;27;20514;-65
2023/04/05 05:08:07;;;;;;;10.23;6.60;;;0.00;99.90;;;;;;5107766;27;20389;-63
2023/04/05 05:10:32;;;;;;;13.38;7.30;;;0.00;99.90;;;;;;5114473;27;20042;-66
2023/04/05 05:12:58;;;;;;;9.82;6.10;;;0.00;99.90;;;;;;5112312;27;20039;-66
2023/04/05 05:15:24;;;;;;;13.52;6.80;;;0.00;99.90;;;;;;5131811;27;20039;-66
2023/04/05 05:17:52;;;;;;;13.30;6.70;;;0.00;99.90;;;;;;5114130;27;20429;-64
2023/04/05 05:20:18;;;;;;;11.40;7.35;;;0.10;99.90;;;;;;5110665;27;20066;-66
2023/04/05 05:22:45;;;;;;;10.75;6.68;;;0.10;99.90;;;;;;5121541;27;20074;-65
2023/04/05 05:25:11;;;;;;;9.68;6.43;;;0.10;99.90;;;;;;5129787;27;20039;-66
2023/04/05 05:27:37;;;;;;;12.18;6.50;;;0.10;99.90;;;;;;5112303;27;20120;-66
2023/04/05 05:30:04;;;;;;;11.55;6.65;;;0.10;99.90;;;;;;5111993;27;20039;-61
2023/04/05 05:32:29;;;;;;;9.85;6.45;;;0.10;99.90;;;;;;5113743;27;20039;-64
2023/04/05 05:34:55;;;;;;;13.52;7.70;;;0.10;99.90;;;;;;5111789;27;20035;-66
2023/04/05 05:37:28;;;;;;;13.38;8.38;;;0.10;99.90;;;;;;5113342;27;20037;-65
2023/04/05 05:39:54;;;;;;;13.68;7.72;;;0.10;99.90;;;;;;5130439;27;20166;-67
2023/04/05 05:42:20;;;;;;;14.77;7.47;;;0.20;99.90;;;;;;5109432;27;20050;-67
2023/04/05 05:44:46;;;;;;;13.13;8.00;;;0.20;99.90;;;;;;5109307;27;20035;-64
2023/04/05 05:47:11;;;;;;;13.27;7.63;;;0.30;99.90;;;;;;5123118;27;20059;-67
2023/04/05 05:49:37;;;;;;;10.68;6.97;;;0.30;99.90;;;;;;5113134;27;20035;-64
2023/04/05 05:52:03;;;;;;;12.23;8.10;;;0.40;99.90;;;;;;5111636;27;20067;-64
2023/04/05 05:54:29;;;;;;;10.30;6.70;;;0.50;99.90;;;;;;5093789;27;20043;-68
2023/04/05 05:56:54;;;;;;;11.52;7.10;;;0.50;99.90;;;;;;5112437;27;20540;-67
2023/04/05 05:59:20;;;;;;;11.95;7.13;;;0.60;99.90;;;;;;5109869;27;20043;-68
2023/04/05 06:01:46;;;;;;;12.38;7.72;;;0.70;99.90;;;;;;5111752;27;20038;-68
2023/04/05 06:04:15;;;;;;;13.32;8.45;;;0.70;99.90;;;;;;5131164;27;20126;-66
2023/04/05 06:06:45;;;;;;;14.93;9.13;;;0.80;99.90;;;;;;5104933;27;20107;-65
2023/04/05 06:09:11;;;;;;;17.40;9.68;;;0.90;99.90;;;;;;5129750;27;20038;-64
2023/04/05 06:11:36;;;;;;;17.73;9.77;;;1.00;99.90;;;;;;5140078;27;20027;-69
2023/04/05 06:14:02;;;;;;;18.70;10.82;;;1.10;99.90;;;;;;5110534;27;20295;-67
2023/04/05 06:16:29;;;;;;;13.50;9.35;;;1.20;99.90;;;;;;5110077;27;20043;-65
2023/04/05 06:18:55;;;;;;;14.35;9.20;;;1.30;99.90;;;;;;5126799;27;20050;-66
2023/04/05 06:21:25;;;;;;;15.70;10.10;;;1.40;99.90;;;;;;5111623;27;20109;-67
2023/04/05 06:23:51;;;;;;;15.20;9.65;;;1.50;99.90;;;;;;5110716;27;20054;-68
2023/04/05 06:26:25;;;;;;;18.50;9.93;;;1.60;99.90;;;;;;5135927;27;20051;-66
2023/04/05 06:28:52;;;;;;;15.13;9.60;;;1.80;99.90;;;;;;5126907;27;20070;-65
2023/04/05 06:31:19;;;;;;;13.23;9.63;;;1.90;99.90;;;;;;5131883;27;20050;-67
2023/04/05 06:33:45;;;;;;;14.93;9.05;;;2.00;99.90;;;;;;5128046;27;20394;-67
2023/04/05 06:36:11;;;;;;;13.60;9.23;;;2.10;99.90;;;;;;5093462;27;20051;-68
2023/04/05 06:38:37;;;;;;;16.98;9.85;;;2.20;99.90;;;;;;5109816;27;20075;-66
2023/04/05 06:41:03;;;;;;;17.75;10.43;;;2.40;99.90;;;;;;5110673;27;20126;-65
2023/04/05 06:43:30;;;;;;;16.67;10.70;;;2.50;99.90;;;;;;5110188;28;20226;-68
2023/04/05 06:45:56;;;;;;;16.98;9.50;;;2.60;99.90;;;;;;5094418;27;20051;-70
2023/04/05 06:48:21;;;;;;;16.40;10.18;;;2.70;99.90;;;;;;5112273;28;20051;-69
2023/04/05 06:50:59;;;;;;;12.93;9.63;;;2.80;99.90;;;;;;5111996;27;20057;-65
2023/04/05 06:53:26;;;;;;;17.02;10.75;;;3.00;99.90;;;;;;5112671;28;20176;-68
2023/04/05 06:55:57;;;;;;;13.30;9.98;;;3.20;99.90;;;;;;5112103;27;20114;-64
2023/04/05 06:58:25;;;;;;;15.13;9.98;;;3.30;99.90;;;;;;5112255;27;20039;-67
2023/04/05 07:00:51;;;;;;;13.88;9.70;;;3.40;99.90;;;;;;5111958;27;20451;-68
2023/04/05 07:03:17;;;;;;;13.70;8.90;;;3.50;99.90;;;;;;5112192;27;20122;-69
2023/04/05 07:05:52;;;;;;;13.35;9.38;;;3.70;99.90;;;;;;5112340;27;20296;-66
2023/04/05 07:08:19;;;;;;;16.00;9.32;;;3.80;99.90;;;;;;5111932;27;20047;-67
2023/04/05 07:10:45;;;;;;;11.85;9.02;;;3.90;99.90;;;;;;5111990;27;20126;-67
2023/04/05 07:13:11;;;;;;;14.57;9.60;;;4.00;99.90;;;;;;5111211;27;20125;-66
2023/04/05 07:15:37;;;;;;;14.90;9.93;;;4.10;99.90;;;;;;5112423;27;20121;-67
2023/04/05 07:18:02;;;;;;;12.98;9.45;;;4.20;99.90;;;;;;5094020;27;20124;-65
2023/04/05 07:20:28;;;;;;;14.60;9.65;;;4.40;99.90;;;;;;5112514;27;20439;-69
2023/04/05 07:22:54;;;;;;;13.13;9.43;;;4.50;99.90;;;;;;5130268;27;20043;-69
2023/04/05 07:25:19;;;;;;;13.98;9.02;;;4.60;99.90;;;;;;5112344;27;20049;-67
2023/04/05 07:27:45;;;;;;;17.48;9.10;;;4.80;99.90;;;;;;5111978;27;20031;-69
2023/04/05 07:30:12;;;;;;;10.85;8.55;;;4.90;99.90;;;;;;5111739;27;20046;-68
2023/04/05 07:32:38;;;;;;;13.73;9.23;;;5.00;99.90;;;;;;5112073;28;20126;-65
2023/04/05 07:35:04;;;;;;;13.15;9.15;;;5.20;99.90;;;;;;5130066;27;20110;-65
2023/04/05 07:37:30;;;;;;;13.48;8.63;;;5.20;99.90;;;;;;5112117;27;20046;-67
2023/04/05 07:39:57;;;;;;;12.27;8.60;;;5.40;99.90;;;;;;5094352;27;20051;-66
2023/04/05 07:42:23;;;;;;;11.18;8.38;;;5.50;99.90;;;;;;5095291;27;20092;-66
2023/04/05 07:44:48;;;;;;;13.40;9.07;;;5.60;99.90;;;;;;5115792;27;20510;-68
2023/04/05 07:47:14;;;;;;;13.32;8.02;;;5.70;99.90;;;;;;5115373;27;20042;-73
2023/04/05 07:49:40;;;;;;;12.65;8.73;;;5.90;99.90;;;;;;5116812;27;20042;-71
2023/04/05 07:52:06;;;;;;;11.07;7.72;;;6.00;99.90;;;;;;5114841;27;20035;-68
2023/04/05 07:54:32;;;;;;;12.00;7.80;;;6.10;99.90;;;;;;5115135;27;20047;-69
2023/04/05 07:56:58;;;;;;;12.93;7.97;;;6.30;99.90;;;;;;5111409;27;20067;-66
2023/04/05 07:59:24;;;;;;;11.77;8.00;;;6.40;99.90;;;;;;5112920;27;20615;-72
2023/04/05 08:01:49;;;;;;;58.85;34.80;;;6.60;99.90;;;;;;5120178;27;20416;-71
2023/04/05 08:04:15;;;;;;;14.55;9.15;;;6.70;99.90;;;;;;5114594;27;20130;-69
2023/04/05 08:06:41;;;;;;;13.52;9.65;;;6.90;99.90;;;;;;5114611;27;20027;-71
2023/04/05 08:09:07;;;;;;;11.20;7.82;;;7.10;99.90;;;;;;5115753;27;20027;-69
2023/04/05 08:11:34;;;;;;;10.07;7.53;;;7.20;99.90;;;;;;5095292;27;20378;-68
2023/04/05 08:14:00;;;;;;;10.82;8.40;;;7.40;99.90;;;;;;5138935;27;20050;-68
2023/04/05 08:16:26;;;;;;;9.63;7.15;;;7.50;99.90;;;;;;5125971;27;20390;-70
2023/04/05 08:18:52;;;;;;;9.93;7.65;;;7.60;99.90;;;;;;5110340;27;20070;-68
2023/04/05 08:21:18;;;;;;;10.43;7.10;;;7.60;99.90;;;;;;5123845;27;20110;-69
2023/04/05 08:23:43;;;;;;;11.27;7.43;;;7.60;99.90;;;;;;5125168;27;20039;-71
2023/04/05 08:26:09;;;;;;;12.93;7.57;;;7.70;99.90;;;;;;5111362;27;20482;-70
2023/04/05 08:28:35;;;;;;;12.65;8.60;;;7.90;99.90;;;;;;5096280;27;20067;-71
2023/04/05 08:31:00;;;;;;;9.32;7.95;;;8.00;99.90;;;;;;5116383;27;20058;-70
2023/04/05 08:33:29;;;;;;;8.13;6.40;;;8.20;99.90;;;;;;5111637;27;20044;-70
2023/04/05 08:35:56;;;;;;;11.15;7.05;;;8.30;99.90;;;;;;5095118;27;20054;-69
2023/04/05 08:38:22;;;;;;;8.68;7.40;;;8.40;99.90;;;;;;5112515;27;20039;-66
2023/04/05 08:40:48;;;;;;;9.40;6.43;;;8.60;99.90;;;;;;5113165;27;20427;-69
2023/04/05 08:43:41;;;;;;;14.25;11.90;;;8.70;99.90;;;;;;5113688;27;20504;-69
2023/04/05 08:46:08;;;;;;;9.88;6.80;;;8.90;99.90;;;;;;5112244;27;20035;-69
2023/04/05 08:48:35;;;;;;;9.05;6.43;;;8.90;99.90;;;;;;5096475;27;20081;-68
2023/04/05 08:51:01;;;;;;;8.45;6.07;;;9.10;99.90;;;;;;5113971;27;20035;-69
2023/04/05 08:53:27;;;;;;;9.27;6.53;;;8.90;98.70;;;;;;5113905;27;20043;-71
2023/04/05 08:55:55;;;;;;;8.43;6.38;;;9.00;99.50;;;;;;5112617;27;20100;-70
2023/04/05 08:58:23;;;;;;;8.82;5.20;;;9.20;99.90;;;;;;5096998;27;20037;-67
2023/04/05 09:00:52;;;;;;;7.55;4.47;;;9.30;98.80;;;;;;5113975;27;20043;-70
2023/04/05 09:03:21;;;;;;;8.23;4.78;;;9.60;98.70;;;;;;5113707;27;20122;-69
2023/04/05 09:05:52;;;;;;;5.80;4.32;;;9.80;97.20;;;;;;5131409;27;20027;-69
2023/04/05 09:08:20;;;;;;;20.85;14.57;;;9.90;96.10;;;;;;5146567;27;20122;-69
2023/04/05 09:10:47;;;;;;;4.90;3.63;;;10.00;97.10;;;;;;5113538;27;20446;-70
2023/04/05 09:13:13;;;;;;;6.97;4.40;;;10.10;93.70;;;;;;5113640;27;20051;-69
2023/04/05 09:15:40;;;;;;;6.93;4.50;;;10.10;94.60;;;;;;5113434;27;20095;-69
2023/04/05 09:18:06;;;;;;;7.18;4.57;;;10.30;94.70;;;;;;5131257;27;20050;-66
2023/04/05 09:20:31;;;;;;;7.28;4.38;;;10.50;94.90;;;;;;5113884;27;20038;-72
2023/04/05 09:22:57;;;;;;;5.55;3.95;;;10.60;93.60;;;;;;5113389;27;20047;-68
2023/04/05 09:25:39;;;;;;;5.63;4.35;;;10.60;92.40;;;;;;5113080;27;20137;-70
2023/04/05 09:28:08;;;;;;;6.07;3.70;;;10.70;92.50;;;;;;5112977;27;20034;-67
2023/04/05 09:30:36;;;;;;;4.93;4.15;;;10.90;92.60;;;;;;5096215;27;20402;-71
2023/04/05 09:33:03;;;;;;;6.18;3.72;;;11.10;92.70;;;;;;5113297;27;20035;-71
2023/04/05 09:35:30;;;;;;;4.82;3.25;;;11.20;91.00;;;;;;5113124;27;20038;-71
2023/04/05 09:37:59;;;;;;;4.38;3.33;;;11.30;90.40;;;;;;5112369;27;20107;-69
2023/04/05 09:40:42;;;;;;;5.50;3.78;;;11.40;89.00;;;;;;5113070;27;20035;-70
2023/04/05 09:43:13;;;;;;;5.22;3.67;;;11.50;87.30;;;;;;5095573;27;20043;-68
2023/04/05 09:45:44;;;;;;;5.15;4.18;;;11.80;88.60;;;;;;5112675;27;20137;-70
2023/04/05 09:48:09;;;;;;;5.78;3.83;;;11.80;86.10;;;;;;5108843;27;20047;-68
2023/04/05 09:50:35;;;;;;;5.20;3.83;;;11.80;84.40;;;;;;5110473;27;20520;-70
2023/04/05 09:53:06;;;;;;;7.18;4.03;;;11.80;83.40;;;;;;5112018;27;20039;-66
2023/04/05 09:55:32;;;;;;;5.30;4.00;;;11.80;83.80;;;;;;5112250;27;20409;-67
2023/04/05 09:57:58;;;;;;;5.95;3.90;;;11.90;86.20;;;;;;5112187;27;20039;-68
2023/04/05 10:00:24;;;;;;;6.15;4.38;;;12.00;83.70;;;;;;5111064;27;20066;-69
2023/04/05 10:02:54;;;;;;;5.97;4.32;;;12.20;83.00;;;;;;5112174;27;20115;-68
2023/04/05 10:05:23;;;;;;;5.50;3.97;;;12.10;78.70;;;;;;5111716;27;20031;-68
2023/04/05 10:07:51;;;;;;;5.72;4.07;;;12.00;77.70;;;;;;5112442;27;20080;-68
2023/04/05 10:10:17;;;;;;;6.80;3.72;;;12.10;79.40;;;;;;5111401;27;20047;-68
2023/04/05 10:12:45;;;;;;;5.65;4.40;;;12.20;79.70;;;;;;5109193;27;20039;-68
2023/04/05 10:15:13;;;;;;;5.07;3.63;;;12.50;79.80;;;;;;5115147;27;20151;-69
2023/04/05 10:17:52;;;;;;;5.72;3.80;;;12.40;75.80;;;;;;5109988;27;20043;-69
2023/04/05 10:20:22;;;;;;;4.82;4.10;;;12.50;78.20;;;;;;5130989;27;20446;-68
2023/04/05 10:22:51;;;;;;;6.47;4.32;;;12.90;78.10;;;;;;5090888;27;20497;-72
2023/04/05 10:25:28;;;;;;;5.57;4.43;;;12.90;73.60;;;;;;5112410;27;20393;-69
2023/04/05 10:28:05;;;;;;;5.85;3.65;;;12.90;73.50;;;;;;5111538;27;20039;-70
2023/04/05 10:30:39;;;;;;;6.65;3.83;;;12.90;72.70;;;;;;5112299;27;20074;-71
2023/04/05 10:33:23;;;;;;;5.65;3.90;;;13.10;72.20;;;;;;5112509;27;20050;-69
2023/04/05 10:35:55;;;;;;;6.03;3.85;;;13.30;71.70;;;;;;5112153;27;20054;-69
2023/04/05 10:38:20;;;;;;;5.28;3.60;;;13.40;70.20;;;;;;5130287;27;20084;-71
2023/04/05 10:40:48;;;;;;;5.18;3.67;;;13.70;71.90;;;;;;5112537;27;20043;-70
2023/04/05 10:43:21;;;;;;;5.82;4.40;;;13.90;71.20;;;;;;5112053;27;20046;-71
2023/04/05 10:45:50;;;;;;;5.53;3.63;;;13.90;69.20;;;;;;5111698;27;20466;-71
2023/04/05 10:48:54;;;;;;;6.45;4.57;;;14.00;68.60;;;;;;5107448;27;20051;-69
2023/04/05 10:51:22;;;;;;;5.13;3.88;;;14.10;69.80;;;;;;5106379;27;20073;-67
2023/04/05 10:53:49;;;;;;;8.65;4.13;;;14.00;68.30;;;;;;5111018;27;20062;-67
2023/04/05 10:56:15;;;;;;;4.85;3.40;;;14.20;69.30;;;;;;5109565;27;20055;-70
2023/04/05 10:58:42;;;;;;;6.70;3.92;;;14.20;66.90;;;;;;5111571;27;20102;-68
2023/04/05 11:01:09;;;;;;;6.47;3.70;;;14.20;68.70;;;;;;5111907;27;20043;-68
2023/04/05 11:03:44;;;;;;;6.30;3.80;;;14.30;68.60;;;;;;5111515;27;20039;-68
2023/04/05 11:06:28;;;;;;;6.40;3.72;;;14.00;68.60;;;;;;5111387;27;20035;-65
2023/04/05 11:09:14;;;;;;;7.90;4.18;;;14.20;69.30;;;;;;5111250;27;20482;-69
2023/04/05 11:11:42;;;;;;;4.63;3.83;;;14.40;68.80;;;;;;5108975;27;20035;-67
2023/04/05 11:14:34;;;;;;;5.68;3.80;;;14.80;70.80;;;;;;5111406;27;20046;-67
2023/04/05 11:17:00;;;;;;;5.65;4.07;;;15.20;71.70;;;;;;5111096;27;20035;-67
2023/04/05 11:19:44;;;;;;;4.72;3.55;;;15.50;69.80;;;;;;5115474;27;20088;-66
2023/04/05 11:22:11;;;;;;;5.82;4.30;;;15.80;67.90;;;;;;5114449;27;20043;-66
2023/04/05 11:24:56;;;;;;;7.25;4.10;;;15.90;69.90;;;;;;5114448;27;20050;-68
2023/04/05 11:27:27;;;;;;;11.98;4.07;;;16.10;68.70;;;;;;5098149;27;20524;-67
2023/04/05 11:29:53;;;;;;;5.18;3.90;;;16.20;67.60;;;;;;5112599;27;20042;-68
2023/04/05 11:32:19;;;;;;;8.10;3.47;;;16.20;65.90;;;;;;5126231;27;20038;-69
2023/04/05 11:35:03;;;;;;;7.25;3.88;;;16.10;65.10;;;;;;5126418;27;20130;-67
2023/04/05 11:38:00;;;;;;;5.78;3.65;;;16.00;61.70;;;;;;5112261;27;20051;-67
2023/04/05 11:40:29;;;;;;;4.20;3.30;;;16.10;65.20;;;;;;5115300;27;20039;-68
2023/04/05 11:43:06;;;;;;;6.45;3.95;;;16.30;65.40;;;;;;5115012;27;20039;-66
2023/04/05 11:45:33;;;;;;;4.60;3.47;;;16.30;62.80;;;;;;5113714;27;20114;-66
2023/04/05 11:48:03;;;;;;;5.78;3.90;;;16.10;61.80;;;;;;5114712;27;20054;-68
2023/04/05 11:50:30;;;;;;;4.68;3.70;;;16.30;64.20;;;;;;5111930;27;20039;-68
2023/04/05 11:53:15;;;;;;;6.03;3.90;;;16.40;64.80;;;;;;5115410;27;20053;-69
2023/04/05 11:55:45;;;;;;;4.60;3.30;;;16.70;65.00;;;;;;5115131;27;20039;-69
2023/04/05 11:58:16;;;;;;;5.07;3.63;;;16.90;64.30;;;;;;5115197;27;20482;-67
2023/04/05 12:00:44;;;;;;;6.60;4.18;;;16.80;61.80;;;;;;5114344;27;20126;-67
2023/04/05 12:03:19;;;;;;;6.00;3.65;;;16.60;62.40;;;;;;5114719;27;20046;-68
2023/04/05 12:05:50;;;;;;;4.28;3.60;;;16.60;61.20;;;;;;5115123;27;20039;-70
2023/04/05 12:08:19;;;;;;;5.55;3.90;;;16.70;62.00;;;;;;5114735;27;20046;-67
2023/04/05 12:10:55;;;;;;;7.00;3.95;;;16.70;60.40;;;;;;5114380;27;20023;-68
2023/04/05 12:13:28;;;;;;;5.68;3.90;;;16.50;59.20;;;;;;5097364;27;20039;-69
2023/04/05 12:16:00;;;;;;;6.35;3.60;;;16.00;57.60;;;;;;5114214;27;20042;-67
2023/04/05 12:18:27;;;;;;;4.78;3.40;;;15.60;56.40;;;;;;5114653;27;20466;-67
2023/04/05 12:20:53;;;;;;;5.97;2.97;;;15.40;57.70;;;;;;5114828;27;20039;-69
2023/04/05 12:23:20;;;;;;;10.68;3.90;;;15.40;56.80;;;;;;5114269;27;20100;-67
2023/04/05 12:25:50;;;;;;;14.18;4.35;;;15.40;57.10;;;;;;5115081;27;20123;-67
2023/04/05 12:28:16;;;;;;;4.72;3.38;;;15.50;57.20;;;;;;5114232;27;20074;-68
2023/04/05 12:30:58;;;;;;;6.40;3.60;;;15.30;56.30;;;;;;5115059;27;20030;-68
2023/04/05 12:33:32;;;;;;;6.75;3.63;;;15.30;55.20;;;;;;5114344;27;20051;-69
2023/04/05 12:36:03;;;;;;;4.53;3.58;;;15.40;57.60;;;;;;5114909;27;20027;-67
2023/04/05 12:38:29;;;;;;;4.80;3.47;;;15.50;58.50;;;;;;5114525;27;20047;-66
2023/04/05 12:41:04;;;;;;;4.88;3.33;;;15.50;58.70;;;;;;5114689;27;20385;-67
2023/04/05 12:43:40;;;;;;;7.22;3.70;;;15.70;58.70;;;;;;5114248;27;20500;-68
2023/04/05 12:46:16;;;;;;;4.80;3.53;;;15.80;57.00;;;;;;5114237;27;20118;-67
2023/04/05 12:48:42;;;;;;;5.00;3.30;;;15.80;58.00;;;;;;5114142;27;20104;-67
2023/04/05 12:51:18;;;;;;;4.35;3.03;;;15.70;56.50;;;;;;5113974;27;20123;-69
2023/04/05 12:53:46;;;;;;;9.32;3.40;;;15.70;57.40;;;;;;5097089;27;20511;-68
2023/04/05 12:56:12;;;;;;;5.05;3.58;;;15.60;56.30;;;;;;5114226;27;20065;-66
2023/04/05 12:58:39;;;;;;;5.35;3.53;;;15.40;55.20;;;;;;5114375;27;20046;-69